sensor_id;sensor_type;location;lat;lon;timestamp;pressure;altitude;pressure_sealevel;temperature;humidity
84663;BME280;74891;59.208;18.220;2024-03-08T00:00:17;102426.94;;;-4.16;74.13
84663;BME280;74891;59.208;18.220;2024-03-08T00:02:45;102404.72;;;-4.31;74.13
84663;BME280;74891;59.208;18.220;2024-03-08T00:05:17;102441.84;;;-4.07;73.82
84663;BME280;74891;59.208;18.220;2024-03-08T00:07:48;102437.97;;;-4.14;74.98
84663;BME280;74891;59.208;18.220;2024-03-08T00:10:14;102442.84;;;-4.09;74.56
84663;BME280;74891;59.208;18.220;2024-03-08T00:12:40;102436.16;;;-4.12;74.11
84663;BME280;74891;59.208;18.220;2024-03-08T00:15:14;102437.22;;;-4.16;74.39
84663;BME280;74891;59.208;18.220;2024-03-08T00:17:40;102400.19;;;-4.42;73.67
84663;BME280;74891;59.208;18.220;2024-03-08T00:20:09;102441.72;;;-4.19;73.68
84663;BME280;74891;59.208;18.220;2024-03-08T00:22:35;102450.19;;;-4.17;73.27
84663;BME280;74891;59.208;18.220;2024-03-08T00:25:02;102445.13;;;-4.19;74.11
84663;BME280;74891;59.208;18.220;2024-03-08T00:27:28;102439.34;;;-4.22;73.31
84663;BME280;74891;59.208;18.220;2024-03-08T00:30:04;102444.56;;;-4.24;73.55
84663;BME280;74891;59.208;18.220;2024-03-08T00:32:37;102429.69;;;-4.33;73.46
84663;BME280;74891;59.208;18.220;2024-03-08T00:35:03;102427.38;;;-4.38;73.73
84663;BME280;74891;59.208;18.220;2024-03-08T00:37:28;102429.69;;;-4.33;73.48
84663;BME280;74891;59.208;18.220;2024-03-08T00:39:54;102438.13;;;-4.31;73.47
84663;BME280;74891;59.208;18.220;2024-03-08T00:42:20;102428.38;;;-4.40;74.88
84663;BME280;74891;59.208;18.220;2024-03-08T00:44:46;102421.00;;;-4.47;73.70
84663;BME280;74891;59.208;18.220;2024-03-08T00:47:15;102430.19;;;-4.42;74.08
84663;BME280;74891;59.208;18.220;2024-03-08T00:49:41;102421.19;;;-4.50;73.89
84663;BME280;74891;59.208;18.220;2024-03-08T00:52:10;102423.75;;;-4.50;73.53
84663;BME280;74891;59.208;18.220;2024-03-08T00:54:35;102424.59;;;-4.49;74.91
84663;BME280;74891;59.208;18.220;2024-03-08T00:57:11;102425.78;;;-4.55;74.00
84663;BME280;74891;59.208;18.220;2024-03-08T00:59:38;102415.66;;;-4.58;73.83
84663;BME280;74891;59.208;18.220;2024-03-08T01:02:03;102405.75;;;-4.64;74.58
84663;BME280;74891;59.208;18.220;2024-03-08T01:04:29;102423.28;;;-4.56;75.11
84663;BME280;74891;59.208;18.220;2024-03-08T01:06:59;102431.97;;;-4.59;74.17
84663;BME280;74891;59.208;18.220;2024-03-08T01:09:25;102432.09;;;-4.60;74.27
84663;BME280;74891;59.208;18.220;2024-03-08T01:11:54;102414.53;;;-4.68;74.39
84663;BME280;74891;59.208;18.220;2024-03-08T01:14:21;102413.59;;;-4.67;73.80
84663;BME280;74891;59.208;18.220;2024-03-08T01:16:54;102416.91;;;-4.65;74.32
84663;BME280;74891;59.208;18.220;2024-03-08T01:19:20;102425.63;;;-4.68;74.52
84663;BME280;74891;59.208;18.220;2024-03-08T01:21:45;102401.47;;;-4.79;74.33
84663;BME280;74891;59.208;18.220;2024-03-08T01:24:11;102413.13;;;-4.74;74.96
84663;BME280;74891;59.208;18.220;2024-03-08T01:26:37;102407.34;;;-4.77;74.02
84663;BME280;74891;59.208;18.220;2024-03-08T01:29:03;102409.06;;;-4.78;74.74
84663;BME280;74891;59.208;18.220;2024-03-08T01:31:31;102381.94;;;-4.98;75.04
84663;BME280;74891;59.208;18.220;2024-03-08T01:33:57;102412.56;;;-4.79;74.67
84663;BME280;74891;59.208;18.220;2024-03-08T01:39:50;102411.09;;;-4.83;74.68
84663;BME280;74891;59.208;18.220;2024-03-08T01:42:18;102410.25;;;-4.83;74.84
84663;BME280;74891;59.208;18.220;2024-03-08T01:44:43;102402.00;;;-4.88;75.08
84663;BME280;74891;59.208;18.220;2024-03-08T01:47:10;102408.97;;;-4.91;75.21
84663;BME280;74891;59.208;18.220;2024-03-08T01:49:37;102405.47;;;-4.90;74.56
84663;BME280;74891;59.208;18.220;2024-03-08T01:52:03;102399.69;;;-4.93;75.03
84663;BME280;74891;59.208;18.220;2024-03-08T01:54:29;102397.19;;;-4.95;74.43
84663;BME280;74891;59.208;18.220;2024-03-08T01:57:11;102355.25;;;-5.25;74.22
84663;BME280;74891;59.208;18.220;2024-03-08T01:59:37;102378.50;;;-5.13;74.61
84663;BME280;74891;59.208;18.220;2024-03-08T02:02:04;102399.28;;;-5.01;74.73
84663;BME280;74891;59.208;18.220;2024-03-08T02:04:37;102386.78;;;-5.07;75.11
84663;BME280;74891;59.208;18.220;2024-03-08T02:07:04;102399.19;;;-5.00;74.78
84663;BME280;74891;59.208;18.220;2024-03-08T02:09:31;102395.78;;;-5.00;74.94
84663;BME280;74891;59.208;18.220;2024-03-08T02:12:18;102397.72;;;-5.04;74.96
84663;BME280;74891;59.208;18.220;2024-03-08T02:14:46;102345.31;;;-5.31;75.07
84663;BME280;74891;59.208;18.220;2024-03-08T02:17:12;102386.63;;;-5.04;74.63
84663;BME280;74891;59.208;18.220;2024-03-08T02:19:38;102389.25;;;-5.06;75.02
84663;BME280;74891;59.208;18.220;2024-03-08T02:22:06;102378.50;;;-5.13;75.07
84663;BME280;74891;59.208;18.220;2024-03-08T02:24:32;102386.47;;;-5.17;74.70
84663;BME280;74891;59.208;18.220;2024-03-08T02:26:58;102381.16;;;-5.14;74.57
84663;BME280;74891;59.208;18.220;2024-03-08T02:29:27;102383.81;;;-5.16;74.73
84663;BME280;74891;59.208;18.220;2024-03-08T02:31:53;102370.56;;;-5.24;75.70
84663;BME280;74891;59.208;18.220;2024-03-08T02:34:20;102381.31;;;-5.17;75.32
84663;BME280;74891;59.208;18.220;2024-03-08T02:36:46;102373.03;;;-5.22;74.99
84663;BME280;74891;59.208;18.220;2024-03-08T02:39:15;102379.91;;;-5.23;75.32
84663;BME280;74891;59.208;18.220;2024-03-08T02:41:41;102387.63;;;-5.23;75.25
84663;BME280;74891;59.208;18.220;2024-03-08T02:44:07;102379.28;;;-5.26;75.63
84663;BME280;74891;59.208;18.220;2024-03-08T02:46:33;102387.44;;;-5.20;75.43
84663;BME280;74891;59.208;18.220;2024-03-08T02:49:00;102376.53;;;-5.23;74.99
84663;BME280;74891;59.208;18.220;2024-03-08T02:51:49;102367.44;;;-5.29;75.44
84663;BME280;74891;59.208;18.220;2024-03-08T02:54:14;102370.06;;;-5.30;75.01
84663;BME280;74891;59.208;18.220;2024-03-08T02:56:48;102330.34;;;-5.55;75.35
84663;BME280;74891;59.208;18.220;2024-03-08T02:59:16;102379.28;;;-5.26;74.69
84663;BME280;74891;59.208;18.220;2024-03-08T03:01:43;102363.47;;;-5.35;75.13
84663;BME280;74891;59.208;18.220;2024-03-08T03:04:11;102377.69;;;-5.29;75.80
84663;BME280;74891;59.208;18.220;2024-03-08T03:06:36;102327.84;;;-5.57;74.97
84663;BME280;74891;59.208;18.220;2024-03-08T03:09:02;102374.38;;;-5.31;74.63
84663;BME280;74891;59.208;18.220;2024-03-08T03:11:28;102374.44;;;-5.32;74.79
84663;BME280;74891;59.208;18.220;2024-03-08T03:13:53;102370.25;;;-5.33;75.07
84663;BME280;74891;59.208;18.220;2024-03-08T03:16:22;102358.22;;;-5.49;75.42
84663;BME280;74891;59.208;18.220;2024-03-08T03:18:48;102368.91;;;-5.41;75.35
84663;BME280;74891;59.208;18.220;2024-03-08T03:21:20;102366.34;;;-5.41;75.36
84663;BME280;74891;59.208;18.220;2024-03-08T03:23:46;102369.84;;;-5.42;74.50
84663;BME280;74891;59.208;18.220;2024-03-08T03:26:13;102323.47;;;-5.70;74.78
84663;BME280;74891;59.208;18.220;2024-03-08T03:28:39;102373.22;;;-5.41;74.34
84663;BME280;74891;59.208;18.220;2024-03-08T03:31:07;102335.25;;;-5.66;74.78
84663;BME280;74891;59.208;18.220;2024-03-08T03:33:35;102377.72;;;-5.45;74.88
84663;BME280;74891;59.208;18.220;2024-03-08T03:36:03;102358.56;;;-5.55;75.39
84663;BME280;74891;59.208;18.220;2024-03-08T03:38:30;102352.09;;;-5.62;75.96
84663;BME280;74891;59.208;18.220;2024-03-08T03:40:57;102364.47;;;-5.53;75.24
84663;BME280;74891;59.208;18.220;2024-03-08T03:43:29;102365.28;;;-5.52;75.21
84663;BME280;74891;59.208;18.220;2024-03-08T03:45:54;102369.44;;;-5.50;74.64
84663;BME280;74891;59.208;18.220;2024-03-08T03:48:23;102356.94;;;-5.56;74.36
84663;BME280;74891;59.208;18.220;2024-03-08T03:50:48;102347.91;;;-5.63;74.30
84663;BME280;74891;59.208;18.220;2024-03-08T03:53:17;102368.91;;;-5.57;75.29
84663;BME280;74891;59.208;18.220;2024-03-08T03:55:48;102336.63;;;-5.76;75.77
84663;BME280;74891;59.208;18.220;2024-03-08T03:58:16;102363.13;;;-5.60;75.90
84663;BME280;74891;59.208;18.220;2024-03-08T04:00:44;102347.25;;;-5.67;74.85
84663;BME280;74891;59.208;18.220;2024-03-08T04:03:09;102347.41;;;-5.70;75.86
84663;BME280;74891;59.208;18.220;2024-03-08T04:05:35;102335.97;;;-5.80;75.58
84663;BME280;74891;59.208;18.220;2024-03-08T04:08:00;102356.66;;;-5.67;75.64
84663;BME280;74891;59.208;18.220;2024-03-08T04:10:29;102340.84;;;-5.75;75.27
84663;BME280;74891;59.208;18.220;2024-03-08T04:12:57;102355.75;;;-5.66;75.09
84663;BME280;74891;59.208;18.220;2024-03-08T04:15:23;102353.38;;;-5.69;74.72
84663;BME280;74891;59.208;18.220;2024-03-08T04:17:48;102361.06;;;-5.69;75.58
84663;BME280;74891;59.208;18.220;2024-03-08T04:20:14;102258.63;;;-6.36;74.55
84663;BME280;74891;59.208;18.220;2024-03-08T04:22:42;102356.81;;;-5.70;75.15
84663;BME280;74891;59.208;18.220;2024-03-08T04:25:09;102341.19;;;-5.82;74.93
84663;BME280;74891;59.208;18.220;2024-03-08T04:27:35;102348.72;;;-5.79;75.23
84663;BME280;74891;59.208;18.220;2024-03-08T04:30:01;102356.34;;;-5.77;74.92
84663;BME280;74891;59.208;18.220;2024-03-08T04:32:27;102340.53;;;-5.85;74.62
84663;BME280;74891;59.208;18.220;2024-03-08T04:34:57;102269.63;;;-6.34;74.62
84663;BME280;74891;59.208;18.220;2024-03-08T04:37:23;102339.94;;;-5.90;75.85
84663;BME280;74891;59.208;18.220;2024-03-08T04:39:50;102353.34;;;-5.85;76.01
84663;BME280;74891;59.208;18.220;2024-03-08T04:42:15;102353.34;;;-5.85;75.08
84663;BME280;74891;59.208;18.220;2024-03-08T04:44:43;102271.25;;;-6.33;75.46
84663;BME280;74891;59.208;18.220;2024-03-08T04:47:08;102351.72;;;-5.86;75.89
84663;BME280;74891;59.208;18.220;2024-03-08T04:49:35;102334.88;;;-5.92;76.34
84663;BME280;74891;59.208;18.220;2024-03-08T04:52:04;102346.72;;;-5.89;75.59
84663;BME280;74891;59.208;18.220;2024-03-08T04:54:40;102328.22;;;-5.94;76.13
84663;BME280;74891;59.208;18.220;2024-03-08T04:57:06;102337.44;;;-5.92;75.98
84663;BME280;74891;59.208;18.220;2024-03-08T04:59:45;102336.91;;;-5.97;76.62
84663;BME280;74891;59.208;18.220;2024-03-08T05:02:11;102330.28;;;-6.01;75.67
84663;BME280;74891;59.208;18.220;2024-03-08T05:04:36;102282.28;;;-6.31;75.98
84663;BME280;74891;59.208;18.220;2024-03-08T05:07:02;102332.03;;;-6.02;75.27
84663;BME280;74891;59.208;18.220;2024-03-08T05:09:28;102330.34;;;-6.03;76.55
84663;BME280;74891;59.208;18.220;2024-03-08T05:11:57;102329.47;;;-6.02;76.69
84663;BME280;74891;59.208;18.220;2024-03-08T05:14:25;102335.34;;;-5.99;76.47
84663;BME280;74891;59.208;18.220;2024-03-08T05:16:50;102334.34;;;-5.97;76.85
84663;BME280;74891;59.208;18.220;2024-03-08T05:19:20;102335.41;;;-6.01;75.80
84663;BME280;74891;59.208;18.220;2024-03-08T05:21:54;102319.59;;;-6.09;74.89
84663;BME280;74891;59.208;18.220;2024-03-08T05:24:19;102327.88;;;-6.04;76.10
84663;BME280;74891;59.208;18.220;2024-03-08T05:26:47;102336.34;;;-6.02;76.18
84663;BME280;74891;59.208;18.220;2024-03-08T05:29:15;102331.03;;;-5.99;75.56
84663;BME280;74891;59.208;18.220;2024-03-08T05:31:51;102326.66;;;-5.97;75.84
84663;BME280;74891;59.208;18.220;2024-03-08T05:34:21;102314.13;;;-6.03;76.36
84663;BME280;74891;59.208;18.220;2024-03-08T05:36:50;102286.00;;;-6.20;75.73
84663;BME280;74891;59.208;18.220;2024-03-08T05:39:16;102329.22;;;-5.97;76.57
84663;BME280;74891;59.208;18.220;2024-03-08T05:41:45;102310.00;;;-6.06;76.49
84663;BME280;74891;59.208;18.220;2024-03-08T05:44:11;102325.75;;;-5.96;76.41
84663;BME280;74891;59.208;18.220;2024-03-08T05:46:38;102331.69;;;-5.95;75.24
84663;BME280;74891;59.208;18.220;2024-03-08T05:49:05;102294.63;;;-6.21;75.59
84663;BME280;74891;59.208;18.220;2024-03-08T05:51:35;102333.22;;;-5.93;75.67
84663;BME280;74891;59.208;18.220;2024-03-08T05:54:19;102261.13;;;-6.34;75.65
84663;BME280;74891;59.208;18.220;2024-03-08T05:56:48;102332.00;;;-5.86;76.86
84663;BME280;74891;59.208;18.220;2024-03-08T05:59:13;102292.13;;;-5.91;76.11
84663;BME280;74891;59.208;18.220;2024-03-08T06:01:41;102329.34;;;-5.52;76.32
84663;BME280;74891;59.208;18.220;2024-03-08T06:04:15;102330.34;;;-5.55;74.96
84663;BME280;74891;59.208;18.220;2024-03-08T06:06:43;102313.78;;;-5.65;75.36
84663;BME280;74891;59.208;18.220;2024-03-08T06:09:11;102322.06;;;-5.60;75.89
84663;BME280;74891;59.208;18.220;2024-03-08T06:11:42;102319.91;;;-5.68;75.83
84663;BME280;74891;59.208;18.220;2024-03-08T06:14:11;102329.53;;;-5.55;76.57
84663;BME280;74891;59.208;18.220;2024-03-08T06:16:36;102329.59;;;-5.57;76.78
84663;BME280;74891;59.208;18.220;2024-03-08T06:19:10;102314.31;;;-5.59;77.43
84663;BME280;74891;59.208;18.220;2024-03-08T06:21:36;102279.22;;;-5.74;76.88
84663;BME280;74891;59.208;18.220;2024-03-08T06:24:04;102325.84;;;-5.36;77.60
84663;BME280;74891;59.208;18.220;2024-03-08T06:26:32;102319.38;;;-4.97;76.07
84663;BME280;74891;59.208;18.220;2024-03-08T06:28:58;102323.25;;;-4.16;76.02
84663;BME280;74891;59.208;18.220;2024-03-08T06:34:42;102325.03;;;-1.81;67.78
84663;BME280;74891;59.208;18.220;2024-03-08T06:37:08;102324.28;;;-1.83;66.99
84663;BME280;74891;59.208;18.220;2024-03-08T06:39:34;102285.97;;;-2.26;67.02
84663;BME280;74891;59.208;18.220;2024-03-08T06:42:01;102329.09;;;-2.15;68.78
84663;BME280;74891;59.208;18.220;2024-03-08T06:44:30;102324.50;;;-2.22;69.93
84663;BME280;74891;59.208;18.220;2024-03-08T06:46:58;102327.03;;;-1.97;68.99
84663;BME280;74891;59.208;18.220;2024-03-08T06:49:30;102329.69;;;-1.86;70.43
84663;BME280;74891;59.208;18.220;2024-03-08T06:51:56;102329.25;;;-1.80;72.39
84663;BME280;74891;59.208;18.220;2024-03-08T06:54:25;102313.44;;;-1.75;71.98
84663;BME280;74891;59.208;18.220;2024-03-08T06:56:50;102332.06;;;-1.59;73.27
84663;BME280;74891;59.208;18.220;2024-03-08T06:59:18;102322.91;;;-1.63;73.92
84663;BME280;74891;59.208;18.220;2024-03-08T07:01:44;102324.72;;;-1.52;74.89
84663;BME280;74891;59.208;18.220;2024-03-08T07:04:12;102258.44;;;-1.88;76.00
84663;BME280;74891;59.208;18.220;2024-03-08T07:06:41;102321.97;;;-1.38;76.21
84663;BME280;74891;59.208;18.220;2024-03-08T07:09:12;102323.44;;;-1.22;76.38
84663;BME280;74891;59.208;18.220;2024-03-08T07:11:40;102323.81;;;-1.16;76.56
84663;BME280;74891;59.208;18.220;2024-03-08T07:14:10;102322.81;;;-1.02;76.92
84663;BME280;74891;59.208;18.220;2024-03-08T07:16:37;102327.53;;;-0.84;76.68
84663;BME280;74891;59.208;18.220;2024-03-08T07:19:05;102334.16;;;-0.69;76.98
84663;BME280;74891;59.208;18.220;2024-03-08T07:21:30;102319.13;;;-0.64;76.42
84663;BME280;74891;59.208;18.220;2024-03-08T07:23:59;102323.97;;;-0.48;76.93
84663;BME280;74891;59.208;18.220;2024-03-08T07:26:25;102317.50;;;-0.42;76.65
84663;BME280;74891;59.208;18.220;2024-03-08T07:28:51;102315.41;;;-0.37;77.24
84663;BME280;74891;59.208;18.220;2024-03-08T07:31:22;102327.50;;;-0.15;76.62
84663;BME280;74891;59.208;18.220;2024-03-08T07:33:53;102301.25;;;-0.22;76.69
84663;BME280;74891;59.208;18.220;2024-03-08T07:36:21;102326.09;;;0.03;76.63
84663;BME280;74891;59.208;18.220;2024-03-08T07:39:14;102328.19;;;0.09;76.00
84663;BME280;74891;59.208;18.220;2024-03-08T07:41:40;102321.59;;;0.16;77.06
84663;BME280;74891;59.208;18.220;2024-03-08T07:44:09;102318.31;;;0.14;77.04
84663;BME280;74891;59.208;18.220;2024-03-08T07:46:35;102310.84;;;0.21;77.22
84663;BME280;74891;59.208;18.220;2024-03-08T07:49:02;102314.84;;;0.36;76.49
84663;BME280;74891;59.208;18.220;2024-03-08T07:51:37;102311.44;;;0.57;76.95
84663;BME280;74891;59.208;18.220;2024-03-08T07:54:03;102310.84;;;0.64;76.20
84663;BME280;74891;59.208;18.220;2024-03-08T07:56:30;102316.44;;;0.81;76.01
84663;BME280;74891;59.208;18.220;2024-03-08T07:58:56;102310.44;;;1.01;75.36
84663;BME280;74891;59.208;18.220;2024-03-08T08:01:24;102306.25;;;1.10;74.99
84663;BME280;74891;59.208;18.220;2024-03-08T08:03:49;102313.47;;;1.27;74.60
84663;BME280;74891;59.208;18.220;2024-03-08T08:06:18;102317.19;;;1.35;74.43
84663;BME280;74891;59.208;18.220;2024-03-08T08:08:44;102323.19;;;1.35;74.32
84663;BME280;74891;59.208;18.220;2024-03-08T08:11:13;102309.31;;;1.46;73.80
84663;BME280;74891;59.208;18.220;2024-03-08T08:13:41;102323.34;;;1.64;73.24
84663;BME280;74891;59.208;18.220;2024-03-08T08:16:08;102315.72;;;1.72;73.01
84663;BME280;74891;59.208;18.220;2024-03-08T08:18:37;102308.66;;;1.84;73.12
84663;BME280;74891;59.208;18.220;2024-03-08T08:21:04;102297.19;;;1.87;72.18
84663;BME280;74891;59.208;18.220;2024-03-08T08:23:35;102315.94;;;1.90;71.85
84663;BME280;74891;59.208;18.220;2024-03-08T08:26:03;102313.59;;;1.87;71.90
84663;BME280;74891;59.208;18.220;2024-03-08T08:28:29;102308.00;;;1.92;72.71
84663;BME280;74891;59.208;18.220;2024-03-08T08:30:58;102259.19;;;1.86;72.15
84663;BME280;74891;59.208;18.220;2024-03-08T08:33:25;102309.88;;;2.20;71.44
84663;BME280;74891;59.208;18.220;2024-03-08T08:35:58;102302.72;;;2.22;71.67
84663;BME280;74891;59.208;18.220;2024-03-08T08:38:24;102313.44;;;2.39;71.26
84663;BME280;74891;59.208;18.220;2024-03-08T08:40:52;102301.94;;;2.51;70.92
84663;BME280;74891;59.208;18.220;2024-03-08T08:43:18;102297.03;;;2.67;69.94
84663;BME280;74891;59.208;18.220;2024-03-08T08:45:44;102280.31;;;2.70;69.87
84663;BME280;74891;59.208;18.220;2024-03-08T08:48:12;102303.03;;;2.97;69.23
84663;BME280;74891;59.208;18.220;2024-03-08T08:50:38;102299.84;;;3.03;69.12
84663;BME280;74891;59.208;18.220;2024-03-08T08:53:09;102299.97;;;3.11;68.34
84663;BME280;74891;59.208;18.220;2024-03-08T08:55:35;102293.66;;;3.24;68.61
84663;BME280;74891;59.208;18.220;2024-03-08T08:58:01;102299.13;;;3.30;68.48
84663;BME280;74891;59.208;18.220;2024-03-08T09:00:28;102295.56;;;3.31;68.67
84663;BME280;74891;59.208;18.220;2024-03-08T09:02:59;102286.47;;;3.45;67.59
84663;BME280;74891;59.208;18.220;2024-03-08T09:05:24;102290.69;;;3.56;67.71
84663;BME280;74891;59.208;18.220;2024-03-08T09:07:50;102281.56;;;3.70;67.21
84663;BME280;74891;59.208;18.220;2024-03-08T09:10:15;102283.81;;;3.83;66.17
84663;BME280;74891;59.208;18.220;2024-03-08T09:12:44;102291.22;;;3.87;66.12
84663;BME280;74891;59.208;18.220;2024-03-08T09:15:15;102279.97;;;3.87;65.15
84663;BME280;74891;59.208;18.220;2024-03-08T09:17:48;102279.56;;;4.09;65.72
84663;BME280;74891;59.208;18.220;2024-03-08T09:20:13;102293.38;;;4.37;65.53
84663;BME280;74891;59.208;18.220;2024-03-08T09:22:45;102287.69;;;4.60;64.06
84663;BME280;74891;59.208;18.220;2024-03-08T09:25:11;102283.22;;;4.70;62.84
84663;BME280;74891;59.208;18.220;2024-03-08T09:27:39;102278.81;;;4.17;62.49
84663;BME280;74891;59.208;18.220;2024-03-08T09:30:08;102279.19;;;4.22;63.34
84663;BME280;74891;59.208;18.220;2024-03-08T09:32:34;102263.66;;;4.48;62.38
84663;BME280;74891;59.208;18.220;2024-03-08T09:35:02;102263.59;;;4.66;62.74
84663;BME280;74891;59.208;18.220;2024-03-08T09:37:31;102236.25;;;4.70;62.25
84663;BME280;74891;59.208;18.220;2024-03-08T09:39:56;102255.28;;;4.88;61.72
84663;BME280;74891;59.208;18.220;2024-03-08T09:42:24;102263.06;;;5.06;61.52
84663;BME280;74891;59.208;18.220;2024-03-08T09:44:49;102265.41;;;5.18;60.96
84663;BME280;74891;59.208;18.220;2024-03-08T09:47:22;102262.63;;;5.45;60.38
84663;BME280;74891;59.208;18.220;2024-03-08T09:49:50;102270.50;;;5.53;59.65
84663;BME280;74891;59.208;18.220;2024-03-08T09:52:20;102235.38;;;5.48;59.10
84663;BME280;74891;59.208;18.220;2024-03-08T09:54:49;102251.50;;;5.86;58.72
84663;BME280;74891;59.208;18.220;2024-03-08T09:57:15;102238.59;;;5.84;58.80
84663;BME280;74891;59.208;18.220;2024-03-08T09:59:41;102260.88;;;5.96;57.90
84663;BME280;74891;59.208;18.220;2024-03-08T10:02:14;102261.13;;;5.85;57.41
84663;BME280;74891;59.208;18.220;2024-03-08T10:04:40;102272.38;;;5.77;58.21
84663;BME280;74891;59.208;18.220;2024-03-08T10:07:12;102262.19;;;6.01;58.03
84663;BME280;74891;59.208;18.220;2024-03-08T10:09:38;102262.84;;;5.94;56.92
84663;BME280;74891;59.208;18.220;2024-03-08T10:12:11;102263.22;;;5.65;56.65
84663;BME280;74891;59.208;18.220;2024-03-08T10:14:39;102261.28;;;5.75;56.66
84663;BME280;74891;59.208;18.220;2024-03-08T10:17:06;102225.50;;;5.76;56.66
84663;BME280;74891;59.208;18.220;2024-03-08T10:19:39;102270.25;;;5.73;55.82
84663;BME280;74891;59.208;18.220;2024-03-08T10:22:15;102260.53;;;5.99;56.22
84663;BME280;74891;59.208;18.220;2024-03-08T10:24:41;102265.31;;;5.70;56.06
84663;BME280;74891;59.208;18.220;2024-03-08T10:27:07;102208.97;;;5.59;56.60
84663;BME280;74891;59.208;18.220;2024-03-08T10:29:36;102260.63;;;5.73;54.92
84663;BME280;74891;59.208;18.220;2024-03-08T10:32:04;102216.38;;;5.29;54.92
84663;BME280;74891;59.208;18.220;2024-03-08T10:34:33;102263.00;;;5.59;55.17
84663;BME280;74891;59.208;18.220;2024-03-08T10:37:03;102273.34;;;5.68;55.90
84663;BME280;74891;59.208;18.220;2024-03-08T10:39:37;102264.88;;;5.83;55.53
84663;BME280;74891;59.208;18.220;2024-03-08T10:42:26;102242.97;;;5.67;54.83
84663;BME280;74891;59.208;18.220;2024-03-08T10:45:46;102267.53;;;5.91;55.16
84663;BME280;74891;59.208;18.220;2024-03-08T10:50:46;102240.97;;;6.04;54.06
84663;BME280;74891;59.208;18.220;2024-03-08T10:53:17;102268.28;;;6.17;53.96
84663;BME280;74891;59.208;18.220;2024-03-08T10:55:49;102272.16;;;6.05;53.45
84663;BME280;74891;59.208;18.220;2024-03-08T10:58:22;102260.66;;;5.90;54.61
84663;BME280;74891;59.208;18.220;2024-03-08T11:01:06;102269.56;;;6.13;54.65
84663;BME280;74891;59.208;18.220;2024-03-08T11:06:44;102266.47;;;6.10;53.45
84663;BME280;74891;59.208;18.220;2024-03-08T11:12:24;102269.28;;;6.25;53.07
84663;BME280;74891;59.208;18.220;2024-03-08T11:15:22;102260.09;;;6.12;53.56
84663;BME280;74891;59.208;18.220;2024-03-08T11:17:50;102253.25;;;6.19;54.04
84663;BME280;74891;59.208;18.220;2024-03-08T11:20:34;102254.84;;;6.12;53.52
84663;BME280;74891;59.208;18.220;2024-03-08T11:23:04;102247.81;;;6.05;54.00
84663;BME280;74891;59.208;18.220;2024-03-08T11:25:34;102242.41;;;5.98;54.31
84663;BME280;74891;59.208;18.220;2024-03-08T11:28:22;102243.13;;;6.25;53.99
84663;BME280;74891;59.208;18.220;2024-03-08T11:33:34;102235.91;;;6.51;53.15
84663;BME280;74891;59.208;18.220;2024-03-08T11:38:32;102246.19;;;6.85;53.03
84663;BME280;74891;59.208;18.220;2024-03-08T11:41:05;102236.84;;;6.99;51.63
84663;BME280;74891;59.208;18.220;2024-03-08T11:43:33;102233.53;;;7.14;52.25
84663;BME280;74891;59.208;18.220;2024-03-08T11:49:20;102232.00;;;6.47;51.67
84663;BME280;74891;59.208;18.220;2024-03-08T11:51:46;102224.16;;;6.55;51.54
84663;BME280;74891;59.208;18.220;2024-03-08T11:54:18;102225.44;;;6.27;51.90
84663;BME280;74891;59.208;18.220;2024-03-08T11:56:46;102210.59;;;6.27;52.57
84663;BME280;74891;59.208;18.220;2024-03-08T11:59:35;102232.47;;;6.34;50.20
84663;BME280;74891;59.208;18.220;2024-03-08T12:02:05;102180.00;;;6.11;51.06
84663;BME280;74891;59.208;18.220;2024-03-08T12:04:50;102232.97;;;6.62;51.27
84663;BME280;74891;59.208;18.220;2024-03-08T12:07:24;102233.28;;;6.51;51.65
84663;BME280;74891;59.208;18.220;2024-03-08T12:12:52;102232.34;;;6.36;50.54
84663;BME280;74891;59.208;18.220;2024-03-08T12:15:23;102229.88;;;6.34;51.93
84663;BME280;74891;59.208;18.220;2024-03-08T12:17:53;102229.88;;;6.51;52.06
84663;BME280;74891;59.208;18.220;2024-03-08T12:23:00;102192.91;;;6.13;51.79
84663;BME280;74891;59.208;18.220;2024-03-08T12:25:34;102221.88;;;6.44;52.01
84663;BME280;74891;59.208;18.220;2024-03-08T12:28:11;102218.91;;;6.47;51.38
84663;BME280;74891;59.208;18.220;2024-03-08T12:31:07;102229.22;;;6.57;50.46
84663;BME280;74891;59.208;18.220;2024-03-08T12:33:55;102231.34;;;6.20;51.94
84663;BME280;74891;59.208;18.220;2024-03-08T12:36:35;102232.00;;;6.31;52.44
84663;BME280;74891;59.208;18.220;2024-03-08T12:39:05;102234.13;;;6.35;53.01
84663;BME280;74891;59.208;18.220;2024-03-08T12:41:32;102230.19;;;6.39;52.61
84663;BME280;74891;59.208;18.220;2024-03-08T12:44:07;102219.88;;;6.21;52.23
84663;BME280;74891;59.208;18.220;2024-03-08T12:46:35;102226.09;;;6.37;52.74
84663;BME280;74891;59.208;18.220;2024-03-08T12:49:03;102229.06;;;6.42;53.22
84663;BME280;74891;59.208;18.220;2024-03-08T12:51:32;102236.06;;;6.17;53.07
84663;BME280;74891;59.208;18.220;2024-03-08T12:54:01;102232.31;;;6.11;53.79
84663;BME280;74891;59.208;18.220;2024-03-08T12:56:31;102202.22;;;6.07;54.17
84663;BME280;74891;59.208;18.220;2024-03-08T12:58:58;102229.72;;;6.52;53.33
84663;BME280;74891;59.208;18.220;2024-03-08T13:01:26;102220.53;;;6.32;53.50
84663;BME280;74891;59.208;18.220;2024-03-08T13:04:10;102198.31;;;6.03;53.34
84663;BME280;74891;59.208;18.220;2024-03-08T13:06:42;102230.81;;;6.01;53.67
84663;BME280;74891;59.208;18.220;2024-03-08T13:09:07;102217.16;;;5.81;53.84
84663;BME280;74891;59.208;18.220;2024-03-08T13:11:50;102224.75;;;5.92;53.63
84663;BME280;74891;59.208;18.220;2024-03-08T13:14:17;102223.16;;;6.15;53.28
84663;BME280;74891;59.208;18.220;2024-03-08T13:16:43;102217.25;;;6.21;53.55
84663;BME280;74891;59.208;18.220;2024-03-08T13:19:13;102220.94;;;5.86;54.28
84663;BME280;74891;59.208;18.220;2024-03-08T13:21:39;102218.53;;;5.93;54.00
84663;BME280;74891;59.208;18.220;2024-03-08T13:24:10;102218.22;;;5.96;54.03